Time;durP1;ratioP1;P1;durP2;ratioP2;P2;SDS_P1;SDS_P2;PMS_P1;PMS_P2;Temp;Humidity;BMP_temperature;BMP_pressure;BME280_temperature;BME280_humidity;BME280_pressure;Samples;Min_cycle;Max_cycle;Signal;HPM_P1;HPM_P2
2022/07/28 00:00:12;;;;;;;7.50;1.77;;;15.30;99.90;;;;;;5047157;28;20032;-69
2022/07/28 00:02:38;;;;;;;7.70;2.38;;;15.30;99.90;;;;;;5049114;28;20025;-69
2022/07/28 00:05:05;;;;;;;5.78;2.05;;;15.20;99.90;;;;;;5064527;28;20048;-69
2022/07/28 00:07:30;;;;;;;5.35;1.50;;;15.20;99.90;;;;;;5063605;28;20412;-69
2022/07/28 00:09:56;;;;;;;4.68;1.70;;;15.10;99.90;;;;;;5065604;28;20055;-69
2022/07/28 00:12:22;;;;;;;4.40;1.75;;;15.10;99.90;;;;;;5064966;28;20028;-70
2022/07/28 00:14:47;;;;;;;5.20;1.80;;;15.00;99.90;;;;;;5063649;28;20040;-69
2022/07/28 00:17:13;;;;;;;4.57;1.60;;;15.00;99.90;;;;;;5065760;28;20036;-69
2022/07/28 00:19:39;;;;;;;7.45;2.00;;;15.00;99.90;;;;;;5062968;28;20040;-69
2022/07/28 00:22:06;;;;;;;9.85;1.80;;;14.90;99.90;;;;;;5066992;28;20424;-69
2022/07/28 00:24:31;;;;;;;5.20;2.00;;;14.90;99.90;;;;;;5065567;28;20493;-69
2022/07/28 00:26:58;;;;;;;7.03;1.80;;;14.90;99.90;;;;;;5065234;28;20044;-67
2022/07/28 00:29:24;;;;;;;5.70;2.00;;;14.80;99.90;;;;;;5066575;28;20497;-69
2022/07/28 00:31:50;;;;;;;6.15;1.67;;;14.80;99.90;;;;;;5066055;28;20103;-69
2022/07/28 00:34:15;;;;;;;4.80;1.70;;;14.70;99.90;;;;;;5062725;28;20115;-70
2022/07/28 00:36:41;;;;;;;6.25;1.75;;;14.70;99.90;;;;;;5071411;28;20051;-67
2022/07/28 00:39:07;;;;;;;5.68;2.03;;;14.80;99.90;;;;;;5050853;28;20039;-69
2022/07/28 00:41:32;;;;;;;6.50;1.80;;;14.70;99.90;;;;;;5071074;28;20043;-68
2022/07/28 00:43:58;;;;;;;5.65;2.10;;;14.70;99.90;;;;;;5070685;28;20078;-68
2022/07/28 00:46:24;;;;;;;5.85;1.73;;;14.70;99.90;;;;;;5051322;28;20035;-67
2022/07/28 00:48:52;;;;;;;4.75;1.67;;;14.70;99.90;;;;;;5052117;28;20029;-68
2022/07/28 00:51:21;;;;;;;4.75;1.80;;;14.60;99.90;;;;;;5070115;28;20037;-68
2022/07/28 00:53:47;;;;;;;6.53;2.13;;;14.60;99.90;;;;;;5070758;28;20107;-68
2022/07/28 00:56:13;;;;;;;6.80;2.03;;;14.60;99.90;;;;;;5052652;28;20066;-70
2022/07/28 00:58:39;;;;;;;5.70;1.80;;;14.60;99.90;;;;;;5049920;28;20058;-69
2022/07/28 01:01:07;;;;;;;6.15;1.88;;;14.60;99.90;;;;;;5069326;28;20514;-67
2022/07/28 01:03:37;;;;;;;5.75;1.90;;;14.50;99.90;;;;;;5070373;28;20336;-68
2022/07/28 01:06:24;;;;;;;5.88;2.15;;;14.50;99.90;;;;;;5052520;28;20036;-68
2022/07/28 01:09:39;;;;;;;5.28;2.03;;;14.40;99.90;;;;;;5069750;28;20082;-68
2022/07/28 01:12:23;;;;;;;5.55;2.40;;;14.40;99.90;;;;;;5067976;28;20028;-67
2022/07/28 01:15:11;;;;;;;5.05;2.03;;;14.40;99.90;;;;;;5068981;28;20086;-67
2022/07/28 01:18:01;;;;;;;6.68;2.33;;;14.50;99.90;;;;;;5052111;28;20064;-67
2022/07/28 01:20:48;;;;;;;6.85;2.88;;;14.40;99.90;;;;;;5067751;28;20036;-69
2022/07/28 01:23:52;;;;;;;8.15;2.50;;;14.40;99.90;;;;;;5069319;28;20028;-68
2022/07/28 01:26:19;;;;;;;4.75;2.13;;;14.40;99.90;;;;;;5069501;28;20040;-70
2022/07/28 01:29:23;;;;;;;6.50;2.40;;;14.40;99.90;;;;;;5070149;28;20379;-69
2022/07/28 01:32:00;;;;;;;7.65;2.28;;;14.30;99.90;;;;;;5070934;28;20419;-69
2022/07/28 01:34:32;;;;;;;6.43;2.35;;;14.30;99.90;;;;;;5049723;28;20036;-69
2022/07/28 01:37:05;;;;;;;7.00;2.42;;;14.20;99.90;;;;;;5051540;28;20501;-69
2022/07/28 01:39:34;;;;;;;6.38;2.47;;;14.20;99.90;;;;;;5069669;28;20043;-70
2022/07/28 01:42:01;;;;;;;5.35;2.17;;;14.20;99.90;;;;;;5070088;28;20079;-69
2022/07/28 01:44:29;;;;;;;6.53;2.75;;;14.20;99.90;;;;;;5068395;28;20089;-69
2022/07/28 01:46:57;;;;;;;7.53;2.40;;;14.20;99.90;;;;;;5067369;28;20044;-68
2022/07/28 01:49:25;;;;;;;5.75;2.25;;;14.20;99.90;;;;;;5069493;28;20043;-68
2022/07/28 01:51:51;;;;;;;5.55;2.17;;;14.10;99.90;;;;;;5070228;28;20066;-68
2022/07/28 01:54:20;;;;;;;4.20;2.22;;;14.10;99.90;;;;;;5068128;28;20028;-68
2022/07/28 01:56:48;;;;;;;5.67;2.00;;;14.00;99.90;;;;;;5047395;28;20032;-68
2022/07/28 01:59:15;;;;;;;5.50;2.15;;;14.00;99.90;;;;;;5067115;28;20039;-68
2022/07/28 02:01:43;;;;;;;5.53;2.45;;;14.00;99.90;;;;;;5067633;28;20028;-68
2022/07/28 02:04:11;;;;;;;6.75;2.13;;;13.90;99.90;;;;;;5068557;28;20037;-68
2022/07/28 02:06:39;;;;;;;6.07;2.22;;;13.90;99.90;;;;;;5049165;28;20035;-68
2022/07/28 02:09:06;;;;;;;4.80;2.38;;;13.90;99.90;;;;;;5068936;28;20072;-68
2022/07/28 02:11:41;;;;;;;7.35;2.67;;;13.90;99.90;;;;;;5050278;28;20035;-68
2022/07/28 02:14:19;;;;;;;9.00;2.50;;;13.90;99.90;;;;;;5066603;28;20063;-68
2022/07/28 02:16:48;;;;;;;5.07;2.17;;;13.90;99.90;;;;;;5046132;28;20056;-68
2022/07/28 02:19:16;;;;;;;4.75;2.15;;;13.90;99.90;;;;;;5051530;28;20489;-68
2022/07/28 02:21:46;;;;;;;7.15;2.38;;;13.80;99.90;;;;;;5063491;28;20036;-68
2022/07/28 02:24:12;;;;;;;5.85;2.50;;;13.80;99.90;;;;;;5066782;28;20029;-68
2022/07/28 02:26:46;;;;;;;7.10;2.30;;;13.80;99.90;;;;;;5069518;28;20033;-68
2022/07/28 02:29:13;;;;;;;4.80;1.88;;;13.80;99.90;;;;;;5049534;28;20036;-68
2022/07/28 02:32:03;;;;;;;5.07;2.10;;;13.80;99.90;;;;;;5069354;28;20089;-68
2022/07/28 02:34:32;;;;;;;5.25;1.98;;;13.80;99.90;;;;;;5048837;28;20039;-68
2022/07/28 02:37:01;;;;;;;5.32;2.13;;;13.70;99.90;;;;;;5068204;28;20036;-68
2022/07/28 02:39:35;;;;;;;5.80;3.03;;;13.70;99.90;;;;;;5049921;28;20036;-68
2022/07/28 02:42:05;;;;;;;4.90;2.30;;;13.70;99.90;;;;;;5050001;28;20783;-68
2022/07/28 02:44:39;;;;;;;5.10;2.47;;;13.60;99.90;;;;;;5069334;28;20074;-68
2022/07/28 02:47:08;;;;;;;5.18;2.47;;;13.60;99.90;;;;;;5067772;28;20036;-69
2022/07/28 02:49:35;;;;;;;4.85;2.60;;;13.60;99.90;;;;;;5066903;28;20035;-68
2022/07/28 02:52:05;;;;;;;7.00;2.85;;;13.60;99.90;;;;;;5067314;28;20112;-68
2022/07/28 02:54:31;;;;;;;;;;;13.60;99.90;;;;;;5049074;28;20078;-68
2022/07/28 02:56:58;;;;;;;6.15;2.72;;;13.50;99.90;;;;;;5067352;28;20378;-69
2022/07/28 02:59:26;;;;;;;5.55;2.05;;;13.60;99.90;;;;;;5067584;28;20036;-68
2022/07/28 03:01:52;;;;;;;8.02;2.40;;;13.70;99.90;;;;;;5066078;28;20071;-69
2022/07/28 03:07:03;;;;;;;4.45;2.30;;;13.70;99.90;;;;;;5068052;28;20110;-69
2022/07/28 03:09:30;;;;;;;7.05;2.33;;;13.70;99.90;;;;;;5048926;28;20064;-69
2022/07/28 03:11:56;;;;;;;7.43;2.55;;;13.70;99.90;;;;;;5067743;28;20062;-69
2022/07/28 03:14:22;;;;;;;5.50;2.45;;;13.70;99.90;;;;;;5049442;28;20848;-69
2022/07/28 03:16:47;;;;;;;6.85;2.47;;;13.70;99.90;;;;;;5068503;28;20038;-69
2022/07/28 03:19:13;;;;;;;7.72;2.58;;;13.70;99.90;;;;;;5066629;28;20032;-69
2022/07/28 03:21:40;;;;;;;6.82;2.88;;;13.60;99.90;;;;;;5068271;28;20104;-69
2022/07/28 03:24:08;;;;;;;7.50;2.67;;;13.60;99.90;;;;;;5049753;28;20166;-69
2022/07/28 03:26:42;;;;;;;5.85;2.90;;;13.60;99.90;;;;;;5049419;28;20120;-69
2022/07/28 03:29:09;;;;;;;4.90;2.70;;;13.60;99.90;;;;;;5065974;28;20067;-69
2022/07/28 03:31:38;;;;;;;4.43;2.35;;;13.60;99.90;;;;;;5068196;28;20064;-69
2022/07/28 03:34:04;;;;;;;9.77;2.65;;;13.60;99.90;;;;;;5064940;28;20032;-69
2022/07/28 03:36:38;;;;;;;5.68;2.70;;;13.60;99.90;;;;;;5067103;28;20033;-69
2022/07/28 03:39:08;;;;;;;6.45;2.50;;;13.70;99.90;;;;;;5066357;28;20063;-67
2022/07/28 03:41:35;;;;;;;5.10;2.55;;;13.60;99.90;;;;;;5066194;28;20036;-67
2022/07/28 03:44:01;;;;;;;6.72;2.40;;;13.60;99.90;;;;;;5064705;28;20028;-67
2022/07/28 03:46:27;;;;;;;6.40;2.25;;;13.50;99.90;;;;;;5066514;28;20055;-67
2022/07/28 03:48:53;;;;;;;7.72;2.75;;;13.50;99.90;;;;;;5065994;28;20040;-68
2022/07/28 03:51:19;;;;;;;6.50;2.42;;;13.40;99.90;;;;;;5067239;28;20110;-68
2022/07/28 03:53:45;;;;;;;6.20;2.72;;;13.30;99.90;;;;;;5065984;28;20146;-68
2022/07/28 03:56:11;;;;;;;7.57;2.97;;;13.30;99.90;;;;;;5066386;28;20050;-68
2022/07/28 03:58:37;;;;;;;7.35;2.70;;;13.20;99.90;;;;;;5047742;28;20057;-68
2022/07/28 04:01:03;;;;;;;6.22;2.60;;;13.20;99.90;;;;;;5063427;28;20029;-68
2022/07/28 04:03:29;;;;;;;6.03;2.60;;;13.20;99.90;;;;;;5064796;28;20535;-68
2022/07/28 04:05:56;;;;;;;7.13;3.10;;;13.20;99.90;;;;;;5067872;28;20036;-68
2022/07/28 04:08:21;;;;;;;5.85;2.72;;;13.20;99.90;;;;;;5060124;28;20536;-68
2022/07/28 04:10:48;;;;;;;6.25;3.00;;;13.20;99.90;;;;;;5067087;28;20024;-67
2022/07/28 04:13:13;;;;;;;8.55;2.88;;;13.20;99.90;;;;;;5048906;28;20094;-68
2022/07/28 04:15:39;;;;;;;6.50;2.63;;;13.20;99.90;;;;;;5042627;28;20472;-68
2022/07/28 04:18:06;;;;;;;4.75;2.42;;;13.20;99.90;;;;;;5048707;28;20028;-68
2022/07/28 04:20:32;;;;;;;6.80;3.30;;;13.20;99.90;;;;;;5065968;28;20077;-67
2022/07/28 04:22:58;;;;;;;6.53;2.90;;;13.20;99.90;;;;;;5065105;28;20486;-67
2022/07/28 04:25:26;;;;;;;7.28;2.80;;;13.20;99.90;;;;;;5065843;28;20039;-68
2022/07/28 04:27:52;;;;;;;7.75;2.60;;;13.30;99.90;;;;;;5065693;28;20128;-67
2022/07/28 04:30:23;;;;;;;6.65;2.60;;;13.30;99.90;;;;;;5063923;28;20032;-67
2022/07/28 04:32:50;;;;;;;6.25;2.72;;;13.20;99.90;;;;;;5064776;28;20557;-68
2022/07/28 04:35:16;;;;;;;6.40;2.85;;;13.20;99.90;;;;;;5066449;28;20051;-68
2022/07/28 04:37:43;;;;;;;6.25;2.63;;;13.30;99.90;;;;;;5066365;28;20020;-67
2022/07/28 04:40:10;;;;;;;8.90;2.80;;;13.30;99.90;;;;;;5066635;28;20102;-68
2022/07/28 04:42:37;;;;;;;4.72;2.70;;;13.40;99.90;;;;;;5066329;28;20036;-68
2022/07/28 04:45:05;;;;;;;5.80;2.40;;;13.40;99.90;;;;;;5064651;28;20630;-68
2022/07/28 04:47:30;;;;;;;6.20;2.40;;;13.50;99.90;;;;;;5064958;28;20137;-68
2022/07/28 04:49:56;;;;;;;6.90;2.80;;;13.50;99.90;;;;;;5046759;28;20071;-67
2022/07/28 04:52:22;;;;;;;6.00;2.67;;;13.50;99.90;;;;;;5065252;28;20181;-67
2022/07/28 04:54:49;;;;;;;7.20;3.10;;;13.50;99.90;;;;;;5067091;28;20037;-68
2022/07/28 04:57:14;;;;;;;6.28;2.97;;;13.50;99.90;;;;;;5065284;28;20047;-68
2022/07/28 04:59:41;;;;;;;8.75;3.05;;;13.50;99.90;;;;;;5066640;28;20024;-68
2022/07/28 05:02:07;;;;;;;7.05;3.38;;;13.50;99.90;;;;;;5065433;28;20078;-68
2022/07/28 05:04:33;;;;;;;5.72;2.83;;;13.50;99.90;;;;;;5048492;28;20036;-68
2022/07/28 05:06:58;;;;;;;4.85;2.70;;;13.60;99.90;;;;;;5063015;28;20043;-68
2022/07/28 05:09:25;;;;;;;3.80;2.63;;;13.60;99.90;;;;;;5047221;28;20055;-68
2022/07/28 05:11:50;;;;;;;6.45;2.90;;;13.60;99.90;;;;;;5066794;28;20028;-68
2022/07/28 05:14:16;;;;;;;4.68;2.55;;;13.70;99.90;;;;;;5064761;28;20024;-68
2022/07/28 05:16:43;;;;;;;8.10;3.00;;;13.80;99.90;;;;;;5067327;28;20029;-68
2022/07/28 05:19:09;;;;;;;7.03;3.22;;;13.80;99.90;;;;;;5048310;28;20024;-68
2022/07/28 05:21:35;;;;;;;5.40;2.83;;;13.80;99.90;;;;;;5066855;28;20043;-68
2022/07/28 05:24:00;;;;;;;5.93;2.85;;;13.90;99.90;;;;;;5069184;28;20032;-68
2022/07/28 05:26:27;;;;;;;6.70;3.10;;;13.90;99.90;;;;;;5043497;28;20035;-68
2022/07/28 05:28:53;;;;;;;6.63;3.30;;;14.00;99.90;;;;;;5066904;28;20561;-68
2022/07/28 05:31:19;;;;;;;6.50;2.95;;;14.00;99.90;;;;;;5069238;28;20694;-68
2022/07/28 05:33:45;;;;;;;7.00;2.75;;;14.00;99.90;;;;;;5070525;28;20033;-67
2022/07/28 05:36:11;;;;;;;9.00;3.63;;;14.10;99.90;;;;;;5069469;28;20036;-68
2022/07/28 05:38:37;;;;;;;8.10;2.97;;;14.10;99.90;;;;;;5050982;28;20060;-68
2022/07/28 05:41:03;;;;;;;6.47;2.80;;;14.20;99.90;;;;;;5069881;28;20032;-68
2022/07/28 05:43:29;;;;;;;6.43;2.90;;;14.20;99.90;;;;;;5068887;28;20024;-68
2022/07/28 05:45:54;;;;;;;6.30;3.22;;;14.30;99.90;;;;;;5061228;28;20033;-68
2022/07/28 05:48:21;;;;;;;7.70;3.10;;;14.40;99.90;;;;;;5064741;28;20565;-68
2022/07/28 05:50:48;;;;;;;6.38;3.20;;;14.40;99.90;;;;;;5068249;28;20032;-68
2022/07/28 05:53:14;;;;;;;7.97;3.78;;;14.50;99.90;;;;;;5050355;28;20060;-68
2022/07/28 05:55:39;;;;;;;8.15;3.17;;;14.50;99.90;;;;;;5065867;28;20060;-68
2022/07/28 05:58:05;;;;;;;7.55;2.90;;;14.60;99.90;;;;;;5068816;28;20032;-68
2022/07/28 06:00:32;;;;;;;9.15;3.50;;;14.70;99.90;;;;;;5051810;28;20037;-68
2022/07/28 06:03:00;;;;;;;6.53;2.92;;;14.80;99.90;;;;;;5063876;28;20040;-67
2022/07/28 06:05:27;;;;;;;6.20;2.88;;;14.80;99.90;;;;;;5070099;28;20043;-69
2022/07/28 06:07:53;;;;;;;5.85;2.75;;;14.90;99.90;;;;;;5069710;28;20110;-67
2022/07/28 06:10:21;;;;;;;8.50;2.75;;;15.00;99.90;;;;;;5069312;28;20056;-69
2022/07/28 06:12:49;;;;;;;8.55;2.90;;;15.10;99.90;;;;;;5051727;28;20051;-69
2022/07/28 06:15:17;;;;;;;7.07;3.13;;;15.20;99.90;;;;;;5065667;28;20042;-69
2022/07/28 06:17:42;;;;;;;6.85;2.53;;;15.30;99.90;;;;;;5051313;28;20090;-67
2022/07/28 06:20:09;;;;;;;6.80;2.72;;;15.40;99.90;;;;;;5045214;28;20413;-69
2022/07/28 06:22:47;;;;;;;6.03;2.45;;;15.50;99.90;;;;;;5069514;28;20097;-67
2022/07/28 06:25:21;;;;;;;6.00;2.90;;;15.50;99.90;;;;;;5068584;28;20029;-69
2022/07/28 06:27:48;;;;;;;5.75;2.65;;;15.60;99.90;;;;;;5065510;28;20041;-69
2022/07/28 06:30:15;;;;;;;8.55;2.92;;;15.70;99.90;;;;;;5063355;28;20031;-69
2022/07/28 06:32:41;;;;;;;8.70;2.80;;;15.70;99.90;;;;;;5046382;28;20055;-69
2022/07/28 06:35:07;;;;;;;7.57;2.60;;;15.70;99.90;;;;;;5068800;28;20038;-69
2022/07/28 06:37:33;;;;;;;5.90;2.47;;;15.80;99.90;;;;;;5069298;28;20032;-69
2022/07/28 06:39:58;;;;;;;7.57;2.75;;;15.90;99.90;;;;;;5050039;28;20035;-69
2022/07/28 06:42:24;;;;;;;7.30;3.13;;;15.90;99.90;;;;;;5045961;28;20056;-68
2022/07/28 06:44:50;;;;;;;8.93;3.10;;;16.00;99.90;;;;;;5066712;28;20566;-68
2022/07/28 06:47:17;;;;;;;6.25;3.10;;;16.10;99.90;;;;;;5067090;28;20117;-68
2022/07/28 06:49:42;;;;;;;8.38;3.10;;;16.10;99.90;;;;;;5062747;28;20040;-68
2022/07/28 06:52:08;;;;;;;10.23;3.15;;;16.20;99.90;;;;;;5067564;28;20493;-68
2022/07/28 06:54:34;;;;;;;9.32;3.15;;;16.30;99.90;;;;;;5068477;28;20075;-68
2022/07/28 06:56:59;;;;;;;9.60;3.25;;;16.30;99.90;;;;;;5065632;28;20044;-68
2022/07/28 06:59:25;;;;;;;8.65;3.17;;;16.40;99.90;;;;;;5066635;28;20025;-68
2022/07/28 07:01:51;;;;;;;9.15;3.33;;;16.40;99.90;;;;;;5067732;28;20032;-68
2022/07/28 07:04:17;;;;;;;7.05;2.58;;;16.50;99.90;;;;;;5048578;28;20024;-68
2022/07/28 07:06:43;;;;;;;8.10;2.42;;;16.60;99.90;;;;;;5042238;28;20032;-68
2022/07/28 07:09:08;;;;;;;8.82;2.47;;;16.70;99.90;;;;;;5047044;28;20054;-68
2022/07/28 07:11:35;;;;;;;6.80;2.28;;;16.80;99.90;;;;;;5066279;28;20036;-68
2022/07/28 07:14:01;;;;;;;6.30;2.20;;;16.90;99.90;;;;;;5066421;28;20043;-69
2022/07/28 07:16:27;;;;;;;4.90;2.10;;;17.00;99.90;;;;;;5071534;28;20044;-69
2022/07/28 07:18:52;;;;;;;6.15;1.90;;;17.10;99.90;;;;;;5049700;28;20035;-69
2022/07/28 07:21:19;;;;;;;9.18;2.53;;;17.20;99.90;;;;;;5067988;28;20721;-69
2022/07/28 07:23:44;;;;;;;6.95;2.30;;;17.30;99.90;;;;;;5067725;28;20048;-69
2022/07/28 07:26:10;;;;;;;6.00;2.60;;;17.40;99.90;;;;;;5048620;28;20110;-69
2022/07/28 07:28:36;;;;;;;8.18;2.22;;;17.50;99.90;;;;;;5066575;28;20043;-69
2022/07/28 07:31:02;;;;;;;7.05;2.33;;;17.60;99.90;;;;;;5062710;28;20033;-69
2022/07/28 07:33:27;;;;;;;7.55;2.15;;;17.70;99.90;;;;;;5057908;28;20091;-69
2022/07/28 07:35:53;;;;;;;12.57;2.50;;;17.80;99.90;;;;;;5043763;28;20059;-69
2022/07/28 07:38:19;;;;;;;7.18;2.10;;;17.80;99.90;;;;;;5063273;28;20028;-68
2022/07/28 07:40:44;;;;;;;7.55;2.20;;;17.80;99.90;;;;;;5061979;28;20035;-69
2022/07/28 07:43:10;;;;;;;6.65;2.00;;;17.90;99.90;;;;;;5060047;28;20484;-69
2022/07/28 07:45:36;;;;;;;5.93;2.00;;;18.00;99.90;;;;;;5042667;28;20754;-68
2022/07/28 07:48:02;;;;;;;7.95;2.47;;;18.00;99.90;;;;;;5061895;28;20170;-68
2022/07/28 07:50:29;;;;;;;12.75;2.60;;;18.10;99.90;;;;;;5043949;28;20029;-68
2022/07/28 07:52:55;;;;;;;7.13;2.20;;;18.10;99.90;;;;;;5061610;28;20036;-69
2022/07/28 07:55:21;;;;;;;8.02;2.28;;;18.20;99.90;;;;;;5058396;28;20035;-69
2022/07/28 07:57:46;;;;;;;6.93;2.58;;;18.30;99.90;;;;;;5047525;28;20032;-69
2022/07/28 08:00:13;;;;;;;6.55;2.50;;;18.30;99.90;;;;;;5064924;28;20028;-68
2022/07/28 08:02:41;;;;;;;6.90;2.10;;;18.50;99.90;;;;;;5066709;28;20043;-69
2022/07/28 08:05:08;;;;;;;10.25;2.53;;;18.60;99.90;;;;;;5042434;28;20032;-69
2022/07/28 08:07:34;;;;;;;8.20;2.30;;;18.80;99.90;;;;;;5059524;28;20072;-69
2022/07/28 08:10:00;;;;;;;8.23;2.20;;;18.90;99.90;;;;;;5065352;28;20048;-69
2022/07/28 08:12:26;;;;;;;8.38;2.03;;;19.00;99.90;;;;;;5064607;28;20036;-69
2022/07/28 08:14:52;;;;;;;5.18;2.10;;;19.10;99.90;;;;;;5048923;28;20029;-69
2022/07/28 08:17:18;;;;;;;9.45;2.35;;;19.30;99.90;;;;;;5064988;28;20453;-69
2022/07/28 08:19:44;;;;;;;8.40;2.10;;;19.50;99.90;;;;;;5064748;28;20115;-69
2022/07/28 08:22:09;;;;;;;5.85;1.92;;;19.70;99.90;;;;;;5067216;28;20390;-69
2022/07/28 08:24:35;;;;;;;7.65;2.15;;;19.90;99.90;;;;;;5066547;28;20040;-69
2022/07/28 08:27:02;;;;;;;7.43;1.98;;;20.00;99.90;;;;;;5066842;28;20029;-69
2022/07/28 08:29:27;;;;;;;7.13;2.08;;;20.00;99.90;;;;;;5060106;28;20039;-69
2022/07/28 08:31:53;;;;;;;5.45;1.90;;;20.10;99.90;;;;;;5061334;28;20032;-69
2022/07/28 08:34:19;;;;;;;4.88;1.80;;;20.10;99.40;;;;;;5064345;28;20040;-69
2022/07/28 08:36:44;;;;;;;4.65;1.50;;;20.00;99.90;;;;;;5063363;28;20056;-70
2022/07/28 08:39:10;;;;;;;6.45;1.70;;;20.00;99.90;;;;;;5067483;28;20025;-70
2022/07/28 08:42:01;;;;;;;4.53;1.90;;;20.10;99.90;;;;;;5066429;28;20033;-69
2022/07/28 08:44:32;;;;;;;6.00;1.58;;;20.10;99.60;;;;;;5066940;28;20490;-69
2022/07/28 08:46:58;;;;;;;5.85;1.65;;;20.20;99.70;;;;;;5049208;28;20033;-69
2022/07/28 08:49:25;;;;;;;5.80;1.70;;;20.40;99.00;;;;;;5068329;28;20059;-69
2022/07/28 08:51:55;;;;;;;9.50;1.98;;;20.60;98.20;;;;;;5067987;28;20036;-69
2022/07/28 08:54:26;;;;;;;7.30;1.58;;;20.70;97.70;;;;;;5067721;28;20055;-69
2022/07/28 08:56:54;;;;;;;6.68;1.77;;;20.90;97.90;;;;;;5070769;28;20128;-68
2022/07/28 08:59:20;;;;;;;5.05;1.65;;;21.00;95.80;;;;;;5071175;28;20107;-69
2022/07/28 09:01:46;;;;;;;6.07;1.63;;;21.00;95.00;;;;;;5071258;28;20127;-68
2022/07/28 09:04:13;;;;;;;4.63;1.63;;;21.00;94.80;;;;;;5070978;28;20508;-69
2022/07/28 09:06:41;;;;;;;5.30;1.40;;;20.90;95.30;;;;;;5064727;28;20047;-69
2022/07/28 09:09:08;;;;;;;7.75;1.98;;;20.90;96.70;;;;;;5070935;28;20064;-69
2022/07/28 09:11:36;;;;;;;5.65;1.60;;;20.80;95.90;;;;;;5061298;28;20029;-69
2022/07/28 09:14:01;;;;;;;6.30;1.40;;;20.80;95.20;;;;;;5074981;28;20036;-68
2022/07/28 09:16:27;;;;;;;6.03;1.38;;;20.80;95.60;;;;;;5092211;28;20039;-68
2022/07/28 09:18:53;;;;;;;4.78;1.20;;;20.80;94.90;;;;;;5079368;28;20099;-69
2022/07/28 09:21:18;;;;;;;3.88;1.20;;;20.90;94.10;;;;;;5071146;28;20405;-68
2022/07/28 09:23:46;;;;;;;4.55;1.20;;;20.90;94.60;;;;;;5071482;28;20040;-69
2022/07/28 09:26:13;;;;;;;5.32;1.35;;;20.90;92.80;;;;;;5071503;28;20032;-69
2022/07/28 09:28:56;;;;;;;6.05;1.38;;;20.80;91.80;;;;;;5071450;28;20424;-69
2022/07/28 09:31:23;;;;;;;4.22;1.15;;;20.80;91.70;;;;;;5071296;28;20036;-69
2022/07/28 09:34:00;;;;;;;6.13;1.40;;;20.70;91.30;;;;;;5090695;28;20020;-69
2022/07/28 09:36:28;;;;;;;6.15;1.50;;;20.70;91.10;;;;;;5084635;28;20025;-69
2022/07/28 09:38:55;;;;;;;5.82;1.30;;;20.70;91.90;;;;;;5071227;28;20048;-68
2022/07/28 09:41:21;;;;;;;4.65;1.40;;;20.70;91.40;;;;;;5070148;28;20032;-68
2022/07/28 09:43:49;;;;;;;6.32;1.48;;;20.60;92.50;;;;;;5053793;28;20040;-68
2022/07/28 09:46:17;;;;;;;5.90;1.40;;;20.70;92.70;;;;;;5070721;28;20028;-69
2022/07/28 09:48:48;;;;;;;7.05;1.73;;;20.70;92.70;;;;;;5069633;28;20032;-69
2022/07/28 09:51:17;;;;;;;6.05;1.35;;;20.70;92.50;;;;;;5069889;28;20036;-69
2022/07/28 09:53:42;;;;;;;6.90;1.30;;;20.70;93.00;;;;;;5052394;28;20036;-69
2022/07/28 09:56:09;;;;;;;5.03;1.63;;;20.80;93.90;;;;;;5069961;28;20040;-69
2022/07/28 09:58:36;;;;;;;5.43;1.25;;;20.90;92.50;;;;;;5069674;28;20043;-69
2022/07/28 10:01:14;;;;;;;4.38;1.60;;;20.90;90.70;;;;;;5051948;28;20037;-68
2022/07/28 10:03:41;;;;;;;6.90;1.20;;;21.00;90.10;;;;;;5067106;28;20158;-68
2022/07/28 10:06:13;;;;;;;4.25;1.30;;;21.00;90.90;;;;;;5051632;28;20123;-68
2022/07/28 10:08:49;;;;;;;4.43;1.48;;;21.10;91.60;;;;;;5065682;28;20118;-68
2022/07/28 10:11:23;;;;;;;7.70;1.80;;;21.30;90.60;;;;;;5070280;28;20052;-68
2022/07/28 10:13:58;;;;;;;4.15;1.40;;;21.30;90.00;;;;;;5067043;28;20033;-69
2022/07/28 10:16:29;;;;;;;4.65;1.30;;;21.30;90.80;;;;;;5069502;28;20032;-68
2022/07/28 10:18:58;;;;;;;4.55;1.30;;;21.30;90.50;;;;;;5069470;28;20029;-69
2022/07/28 10:21:25;;;;;;;6.30;1.20;;;21.40;81.90;;;;;;5069822;28;20032;-69
2022/07/28 10:23:56;;;;;;;4.60;1.17;;;21.50;81.00;;;;;;5070255;28;20035;-69
2022/07/28 10:26:31;;;;;;;5.50;1.35;;;21.60;74.10;;;;;;5068927;28;20075;-69
2022/07/28 10:29:01;;;;;;;5.05;1.20;;;21.70;75.10;;;;;;5069962;28;20493;-67
2022/07/28 10:31:33;;;;;;;7.35;1.27;;;21.80;72.90;;;;;;5069464;28;20844;-68
2022/07/28 10:34:00;;;;;;;5.18;1.40;;;22.00;70.10;;;;;;5062018;28;20029;-68
2022/07/28 10:36:26;;;;;;;4.10;1.20;;;22.10;69.20;;;;;;5059896;28;20056;-69
2022/07/28 10:39:02;;;;;;;3.15;1.00;;;22.20;66.90;;;;;;5062653;28;20082;-69
2022/07/28 10:41:33;;;;;;;5.22;1.00;;;22.30;69.00;;;;;;5044930;28;20029;-69
2022/07/28 10:44:01;;;;;;;5.00;1.33;;;22.30;64.50;;;;;;5060282;28;20029;-70
2022/07/28 10:46:28;;;;;;;5.40;1.30;;;22.30;65.10;;;;;;5061110;28;20133;-69
2022/07/28 10:48:54;;;;;;;3.47;1.20;;;22.30;65.70;;;;;;5062687;28;20032;-69
2022/07/28 10:51:20;;;;;;;4.97;1.20;;;22.30;66.20;;;;;;5063226;28;20039;-68
2022/07/28 10:53:56;;;;;;;4.22;1.27;;;22.40;65.50;;;;;;5063001;28;20032;-68
2022/07/28 10:56:30;;;;;;;4.63;1.08;;;22.50;63.70;;;;;;5043618;28;20455;-68
2022/07/28 10:59:02;;;;;;;4.50;1.20;;;22.50;61.40;;;;;;5062858;28;20040;-68
2022/07/28 11:01:35;;;;;;;4.90;1.23;;;22.40;61.20;;;;;;5062339;28;20572;-68
2022/07/28 11:04:01;;;;;;;3.30;0.95;;;22.50;62.00;;;;;;5061463;28;20751;-69
2022/07/28 11:06:35;;;;;;;5.45;1.10;;;22.60;59.40;;;;;;5058839;28;20124;-69
2022/07/28 11:09:16;;;;;;;6.53;1.20;;;22.50;58.70;;;;;;5062241;28;20040;-68
2022/07/28 11:11:46;;;;;;;5.57;1.20;;;22.50;58.20;;;;;;5064409;28;20030;-69
2022/07/28 11:14:24;;;;;;;;;;;22.40;58.20;;;;;;5061681;28;20029;-69
2022/07/28 11:16:59;;;;;;;5.33;1.50;;;22.30;58.70;;;;;;5061857;28;19919;-68
2022/07/28 11:19:25;;;;;;;5.57;0.98;;;22.20;58.60;;;;;;5064498;28;20071;-68
2022/07/28 11:22:23;;;;;;;4.28;1.10;;;22.10;59.10;;;;;;5063624;28;20490;-68
2022/07/28 11:24:59;;;;;;;5.18;1.23;;;22.00;58.80;;;;;;5042453;28;20032;-69
2022/07/28 11:27:41;;;;;;;6.18;1.00;;;22.00;58.80;;;;;;5062797;28;20056;-69
2022/07/28 11:30:12;;;;;;;2.97;1.00;;;22.00;57.60;;;;;;5060311;28;20348;-68
2022/07/28 11:32:49;;;;;;;6.15;1.20;;;21.90;56.50;;;;;;5059969;28;20028;-69
2022/07/28 11:35:16;;;;;;;4.63;0.93;;;22.00;56.40;;;;;;5064023;28;20112;-69
2022/07/28 11:38:00;;;;;;;4.70;1.00;;;22.00;58.40;;;;;;5062356;28;20165;-69
2022/07/28 11:40:43;;;;;;;4.25;0.85;;;22.00;57.00;;;;;;5044064;28;20093;-69
2022/07/28 11:43:25;;;;;;;3.25;1.23;;;21.90;57.60;;;;;;5060828;28;20110;-69
2022/07/28 11:46:00;;;;;;;4.07;1.00;;;21.80;56.50;;;;;;5054509;28;20020;-69
2022/07/28 11:48:26;;;;;;;5.45;1.02;;;21.80;59.90;;;;;;5043200;28;20035;-69
2022/07/28 11:51:04;;;;;;;4.22;1.20;;;21.70;58.50;;;;;;5061204;28;20024;-69
2022/07/28 11:53:47;;;;;;;6.35;0.95;;;21.70;57.90;;;;;;5059178;28;20486;-70
2022/07/28 11:56:22;;;;;;;7.93;1.70;;;21.70;58.50;;;;;;5059107;28;20755;-69
2022/07/28 11:58:56;;;;;;;3.42;1.02;;;21.70;57.30;;;;;;5063686;28;20033;-70
2022/07/28 12:01:21;;;;;;;5.38;1.10;;;21.70;58.70;;;;;;5062343;28;20457;-69
2022/07/28 12:03:49;;;;;;;2.97;1.10;;;21.70;58.90;;;;;;5059614;28;20035;-70
2022/07/28 12:06:15;;;;;;;3.13;0.90;;;21.70;59.10;;;;;;5060391;28;20058;-70
2022/07/28 12:08:57;;;;;;;2.92;0.95;;;21.80;58.10;;;;;;5042382;28;20041;-70
2022/07/28 12:11:24;;;;;;;5.68;1.27;;;21.80;57.20;;;;;;5061019;28;20573;-70
2022/07/28 12:14:03;;;;;;;4.35;1.20;;;21.80;57.00;;;;;;5060076;28;20024;-70
2022/07/28 12:16:29;;;;;;;;;;;21.80;58.20;;;;;;5060994;28;20132;-68
2022/07/28 12:18:56;;;;;;;4.47;1.00;;;21.80;56.10;;;;;;5062358;28;19917;-68
2022/07/28 12:21:42;;;;;;;6.05;1.40;;;21.80;56.40;;;;;;5058492;28;20402;-67
2022/07/28 12:24:10;;;;;;;3.50;1.10;;;21.80;56.00;;;;;;5058111;28;20045;-68
2022/07/28 12:26:37;;;;;;;6.25;1.48;;;21.70;57.60;;;;;;5060173;28;20119;-69
2022/07/28 12:29:04;;;;;;;3.92;1.20;;;21.70;58.70;;;;;;5061330;28;20086;-68
2022/07/28 12:31:32;;;;;;;3.63;1.15;;;21.80;59.80;;;;;;5056992;28;20032;-69
2022/07/28 12:34:11;;;;;;;5.43;1.10;;;21.80;58.90;;;;;;5058997;28;20032;-68
2022/07/28 12:36:37;;;;;;;4.43;1.50;;;21.70;60.40;;;;;;5063459;28;20703;-69
2022/07/28 12:39:05;;;;;;;3.63;1.00;;;21.70;64.90;;;;;;5063572;28;20032;-68
2022/07/28 12:41:36;;;;;;;5.97;1.30;;;21.70;65.90;;;;;;5043132;28;20051;-69
2022/07/28 12:44:03;;;;;;;6.93;1.42;;;21.60;67.90;;;;;;5040142;28;20039;-68
2022/07/28 12:46:31;;;;;;;6.60;1.33;;;21.60;70.10;;;;;;5042495;28;20029;-69
2022/07/28 12:48:58;;;;;;;4.82;1.30;;;21.60;68.50;;;;;;5043156;28;20040;-68
2022/07/28 12:51:47;;;;;;;4.68;1.45;;;21.60;70.90;;;;;;5058921;28;20502;-68
2022/07/28 12:54:13;;;;;;;;;;;21.70;70.60;;;;;;5059976;28;20032;-69
2022/07/28 12:56:50;;;;;;;5.07;1.02;;;21.80;68.60;;;;;;5061614;28;19920;-69
2022/07/28 12:59:18;;;;;;;4.88;1.20;;;21.80;64.10;;;;;;5059288;28;20032;-68